Terminal Aerodrome Forecast
Issued by NWS

Home | Current Version | Previous Version | Text Only | Print | Product List | Glossary On
Versions: 1 2 3 4 5 6 7 8 9 10 11 12 13 14 15 16 17 18 19 20 21
000
FTUS46 KMTR 041120
TAFSNS
TAF
KSNS 041120Z 0412/0512 VRB03KT 4SM BR OVC004
     FM041700 28005KT P6SM BKN009
     FM041900 28007KT P6SM FEW010
     FM042100 29012KT P6SM SKC
     FM050200 27010KT P6SM OVC009
     FM050600 27005KT P6SM OVC005=

USA.gov is the U.S. government's official web portal to all federal, state and local government web resources and services.